Storm Events Database

Event Details

Event Funnel Cloud
State NEBRASKA
County/Area HOOKER
WFO LBF
Begin Date 07/23/2009 16:15:00 MST-7
Begin Range 12
Begin Azimuth SW
Begin Location MULLEN
Begin Lat/Lon 41.93/-101.19
End Date 07/23/2009 16:15:00 MST-7
Deaths Direct/Indirect 0/0 (fatality details below, when available...)
Injuries Direct/Indirect 0/0
Property Damage 0.00K
Crop Damage 0.00K
Episode Narrative A strong supercell developed over Hooker County during the late afternoon hours and moved southward. Strong rotation and large hail was reported with the storm. Because the storm passed over a very rural area, a tornado could never be confirmed. Another supercell which produced large hail developed during the evening hours across north central Nebraska.
Event Narrative


All events for this episode:

Location County/Zone St. Date Time T.Z. Type Mag Dth Inj PrD CrD
Totals: 0 0 270.00K 0.00K
MULLEN HOOKER CO. NE 07/23/2009 15:03 MST-7 Hail 1.00 in. 0 0 0.00K 0.00K
MULLEN HOOKER CO. NE 07/23/2009 15:09 MST-7 Hail 1.75 in. 0 0 0.00K 0.00K
MULLEN HOOKER CO. NE 07/23/2009 15:22 MST-7 Hail 2.50 in. 0 0 100.00K 0.00K
BROWNLEE CHERRY CO. NE 07/23/2009 15:52 CST-6 Hail 1.00 in. 0 0 0.00K 0.00K
MULLEN HOOKER CO. NE 07/23/2009 16:11 MST-7 Hail 1.00 in. 0 0 0.00K 0.00K
MULLEN HOOKER CO. NE 07/23/2009 16:15 MST-7 Hail 1.00 in. 0 0 0.00K 0.00K
MULLEN HOOKER CO. NE 07/23/2009 16:15 MST-7 Funnel Cloud 0 0 0.00K 0.00K
MULLEN HOOKER CO. NE 07/23/2009 16:33 MST-7 Hail 1.00 in. 0 0 0.00K 0.00K
KEYSTONE KEITH CO. NE 07/23/2009 17:27 MST-7 Hail 2.50 in. 0 0 15.00K 0.00K
TRYON MCPHERSON CO. NE 07/23/2009 17:30 CST-6 Hail 1.25 in. 0 0 0.00K 0.00K
TRYON MCPHERSON CO. NE 07/23/2009 17:56 CST-6 Hail 1.25 in. 0 0 0.00K 0.00K
TRYON MCPHERSON CO. NE 07/23/2009 18:17 CST-6 Hail 1.75 in. 0 0 5.00K 0.00K
BASSETT ROCK CO. NE 07/23/2009 18:48 CST-6 Hail 1.00 in. 0 0 0.00K 0.00K
BASSETT ROCK CO. NE 07/23/2009 18:50 CST-6 Hail 1.00 in. 0 0 0.00K 0.00K
ATKINSON HOLT CO. NE 07/23/2009 18:55 CST-6 Hail 0.88 in. 0 0 0.00K 0.00K
SUTHERLAND LINCOLN CO. NE 07/23/2009 19:03 CST-6 Hail 1.75 in. 0 0 5.00K 0.00K
BASSETT ROCK CO. NE 07/23/2009 19:05 CST-6 Hail 2.50 in. 0 0 15.00K 0.00K
SUTHERLAND LINCOLN CO. NE 07/23/2009 19:07 CST-6 Hail 1.75 in. 0 0 50.00K 0.00K
SUTHERLAND RES LINCOLN CO. NE 07/23/2009 19:19 CST-6 Hail 1.75 in. 0 0 50.00K 0.00K
SPRINGVIEW KEYA PAHA CO. NE 07/23/2009 19:20 CST-6 Hail 0.88 in. 0 0 0.00K 0.00K
TRYON MCPHERSON CO. NE 07/23/2009 19:29 CST-6 Thunderstorm Wind 52 kts. EG 0 0 15.00K 0.00K
SUTHERLAND RES LINCOLN CO. NE 07/23/2009 19:37 CST-6 Hail 1.00 in. 0 0 0.00K 0.00K
WALLACE LINCOLN CO. NE 07/23/2009 19:40 CST-6 Thunderstorm Wind 52 kts. EG 0 0 0.00K 0.00K
LONG PINE BROWN CO. NE 07/23/2009 20:15 CST-6 Hail 1.00 in. 0 0 0.00K 0.00K
LONG PINE BROWN CO. NE 07/23/2009 20:25 CST-6 Hail 1.00 in. 0 0 0.00K 0.00K
AINSWORTH BROWN CO. NE 07/23/2009 20:30 CST-6 Hail 1.75 in. 0 0 15.00K 0.00K
Totals: 0 0 270.00K 0.00K